createdAt,value
2022-08-03T00:00:16.531Z,25.00
2022-08-03T00:03:03.951Z,25.00
2022-08-03T00:06:04.120Z,25.00
2022-08-03T00:08:53.970Z,25.00
2022-08-03T00:11:41.611Z,25.00
2022-08-03T00:14:28.959Z,25.00
2022-08-03T00:17:16.227Z,25.00
2022-08-03T00:20:03.509Z,24.90
2022-08-03T00:22:51.527Z,25.00
2022-08-03T00:25:41.242Z,24.90
2022-08-03T00:28:28.636Z,24.90
2022-08-03T00:31:16.093Z,24.90
2022-08-03T00:34:04.226Z,24.90
2022-08-03T00:36:51.735Z,24.80
2022-08-03T00:39:39.245Z,24.80
2022-08-03T00:42:28.651Z,24.80
2022-08-03T00:45:16.084Z,24.80
2022-08-03T00:48:04.656Z,24.70
2022-08-03T00:50:52.684Z,24.70
2022-08-03T00:53:41.440Z,24.70
2022-08-03T00:56:28.894Z,24.70
2022-08-03T00:59:17.987Z,24.70
2022-08-03T01:02:05.907Z,24.60
2022-08-03T01:04:53.460Z,24.70
2022-08-03T01:07:57.184Z,24.60
2022-08-03T01:10:56.054Z,24.60
2022-08-03T01:14:03.929Z,24.60
2022-08-03T01:17:06.661Z,24.60
2022-08-03T01:20:02.119Z,24.60
2022-08-03T01:23:24.237Z,24.50
2022-08-03T01:26:44.178Z,24.50
2022-08-03T01:30:00.524Z,24.50
2022-08-03T01:33:00.693Z,24.50
2022-08-03T01:35:55.232Z,24.40
2022-08-03T01:38:45.914Z,24.40
2022-08-03T01:41:41.036Z,24.40
2022-08-03T01:44:32.135Z,24.40
2022-08-03T01:47:22.413Z,24.40
2022-08-03T01:50:12.790Z,24.30
2022-08-03T01:53:01.095Z,24.30
2022-08-03T01:55:51.091Z,24.30
2022-08-03T01:58:40.094Z,24.30
2022-08-03T02:02:32.145Z,24.30
2022-08-03T02:04:40.914Z,24.20
2022-08-03T02:07:30.391Z,24.20
2022-08-03T02:10:34.667Z,24.20
2022-08-03T02:13:24.629Z,24.20
2022-08-03T02:16:13.146Z,24.10
2022-08-03T02:19:03.321Z,24.10
2022-08-03T02:21:56.286Z,24.10
2022-08-03T02:24:51.249Z,24.10
2022-08-03T02:27:47.368Z,24.10
2022-08-03T02:30:39.147Z,24.00
2022-08-03T02:33:32.767Z,24.10
2022-08-03T02:36:25.342Z,24.00
2022-08-03T02:39:22.216Z,24.00
2022-08-03T02:42:12.812Z,24.00
2022-08-03T02:45:05.444Z,24.00
2022-08-03T02:47:58.132Z,24.00
2022-08-03T02:50:46.605Z,24.00
2022-08-03T02:53:36.213Z,23.90
2022-08-03T02:56:26.910Z,23.90
2022-08-03T02:59:15.268Z,23.90
2022-08-03T03:02:03.949Z,23.90
2022-08-03T03:05:50.660Z,23.90
2022-08-03T03:08:01.370Z,23.90
2022-08-03T03:10:53.205Z,23.80
2022-08-03T03:13:45.216Z,23.80
2022-08-03T03:16:33.788Z,23.80
2022-08-03T03:19:23.119Z,23.80
2022-08-03T03:22:11.253Z,23.80
2022-08-03T03:24:58.903Z,23.80
2022-08-03T03:27:49.417Z,23.80
2022-08-03T03:30:40.016Z,23.80
2022-08-03T03:33:28.594Z,23.80
2022-08-03T03:36:16.212Z,23.70
2022-08-03T03:39:16.075Z,23.70
2022-08-03T03:42:05.062Z,23.70
2022-08-03T03:44:52.794Z,23.70
2022-08-03T03:47:42.107Z,23.70
2022-08-03T03:50:31.508Z,23.70
2022-08-03T03:53:19.122Z,23.70
2022-08-03T03:56:06.522Z,23.60
2022-08-03T03:58:54.607Z,23.60
2022-08-03T04:01:42.335Z,23.60
2022-08-03T04:04:50.620Z,23.50
2022-08-03T04:08:07.810Z,23.50
2022-08-03T04:11:08.600Z,23.50
2022-08-03T04:14:01.738Z,23.50
2022-08-03T04:16:53.578Z,23.50
2022-08-03T04:19:46.378Z,23.50
2022-08-03T04:22:35.731Z,23.40
2022-08-03T04:25:26.250Z,23.40
2022-08-03T04:28:30.343Z,23.40
2022-08-03T04:31:22.436Z,23.30
2022-08-03T04:34:11.372Z,23.20
2022-08-03T04:37:04.806Z,23.10
2022-08-03T04:39:56.932Z,23.10
2022-08-03T04:42:46.447Z,23.00
2022-08-03T04:45:37.424Z,23.00
2022-08-03T04:48:28.027Z,22.90
2022-08-03T04:51:17.024Z,22.80
2022-08-03T04:54:07.566Z,22.80
2022-08-03T04:56:55.254Z,22.70
2022-08-03T04:59:43.252Z,22.70
2022-08-03T05:02:33.163Z,22.70
2022-08-03T05:05:24.782Z,22.60
2022-08-03T05:08:12.444Z,22.60
2022-08-03T05:11:02.686Z,22.60
2022-08-03T05:13:50.603Z,22.50
2022-08-03T05:16:38.366Z,22.50
2022-08-03T05:19:26.676Z,22.50
2022-08-03T05:22:15.445Z,22.50
2022-08-03T05:25:04.223Z,22.50
2022-08-03T05:27:53.857Z,22.50
2022-08-03T05:30:41.804Z,22.50
2022-08-03T05:33:30.089Z,22.50
2022-08-03T05:36:18.010Z,22.50
2022-08-03T05:39:05.757Z,22.40
2022-08-03T05:41:53.608Z,22.50
2022-08-03T05:44:43.422Z,22.50
2022-08-03T05:47:31.696Z,22.50
2022-08-03T05:50:21.740Z,22.50
2022-08-03T05:53:09.972Z,22.50
2022-08-03T05:56:02.319Z,22.60
2022-08-03T05:59:16.322Z,22.60
2022-08-03T06:02:10.860Z,22.60
2022-08-03T06:04:59.024Z,22.70
2022-08-03T06:07:46.875Z,22.70
2022-08-03T06:10:37.984Z,22.70
2022-08-03T06:13:26.332Z,22.80
2022-08-03T06:16:14.483Z,22.80
2022-08-03T06:19:05.373Z,22.80
2022-08-03T06:21:53.588Z,22.90
2022-08-03T06:24:53.213Z,22.90
2022-08-03T06:27:42.099Z,22.90
2022-08-03T06:30:29.891Z,23.00
2022-08-03T06:33:17.894Z,23.00
2022-08-03T06:36:07.827Z,23.10
2022-08-03T06:38:55.702Z,23.10
2022-08-03T06:41:44.728Z,23.10
2022-08-03T06:44:33.076Z,23.20
2022-08-03T06:47:21.127Z,23.30
2022-08-03T06:50:16.166Z,23.30
2022-08-03T06:53:06.970Z,23.40
2022-08-03T06:55:55.603Z,23.40
2022-08-03T06:58:44.435Z,23.50
2022-08-03T07:01:33.009Z,23.50
2022-08-03T07:04:21.540Z,23.60
2022-08-03T07:07:11.248Z,23.70
2022-08-03T07:10:02.204Z,23.70
2022-08-03T07:12:52.724Z,23.80
2022-08-03T07:15:55.728Z,23.90
2022-08-03T07:18:44.471Z,24.00
2022-08-03T07:21:32.990Z,24.00
2022-08-03T07:24:21.263Z,24.10
2022-08-03T07:27:11.084Z,24.20
2022-08-03T07:30:00.629Z,24.30
2022-08-03T07:32:50.606Z,24.40
2022-08-03T07:35:39.156Z,24.40
2022-08-03T07:38:27.071Z,24.50
2022-08-03T07:41:15.263Z,24.60
2022-08-03T07:44:04.838Z,24.70
2022-08-03T07:46:53.265Z,24.80
2022-08-03T07:49:42.570Z,24.90
2022-08-03T07:52:49.791Z,25.00
2022-08-03T07:55:38.304Z,25.10
2022-08-03T07:58:26.377Z,25.20
2022-08-03T08:01:17.373Z,25.30
2022-08-03T08:04:05.778Z,25.40
2022-08-03T08:07:05.499Z,25.50
2022-08-03T08:09:53.493Z,25.60
2022-08-03T08:12:41.964Z,25.60
2022-08-03T08:15:32.958Z,25.80
2022-08-03T08:18:22.278Z,25.90
2022-08-03T08:21:10.397Z,26.00
2022-08-03T08:23:58.186Z,26.10
2022-08-03T08:26:55.294Z,26.20
2022-08-03T08:29:52.566Z,26.30
2022-08-03T08:32:43.370Z,26.40
2022-08-03T08:35:35.770Z,26.50
2022-08-03T08:38:24.534Z,26.60
2022-08-03T08:41:14.218Z,26.70
2022-08-03T08:44:02.834Z,26.80
2022-08-03T08:46:51.469Z,26.90
2022-08-03T08:49:53.422Z,27.00
2022-08-03T08:52:53.710Z,27.20
2022-08-03T08:55:58.601Z,27.30
2022-08-03T08:58:56.264Z,27.40
2022-08-03T09:01:44.632Z,27.50
2022-08-03T09:04:33.706Z,27.60
2022-08-03T09:07:21.625Z,27.70
2022-08-03T09:10:13.894Z,27.80
2022-08-03T09:13:01.992Z,27.90
2022-08-03T09:16:01.098Z,28.10
2022-08-03T09:18:54.547Z,28.20
2022-08-03T09:21:42.592Z,28.30
2022-08-03T09:24:41.143Z,28.40
2022-08-03T09:27:31.148Z,28.50
2022-08-03T09:30:34.447Z,28.60
2022-08-03T09:33:24.530Z,28.70
2022-08-03T09:36:37.617Z,28.90
2022-08-03T09:39:42.166Z,29.00
2022-08-03T09:42:31.697Z,29.10
2022-08-03T09:45:28.674Z,29.20
2022-08-03T09:48:25.496Z,29.30
2022-08-03T09:51:33.283Z,29.40
2022-08-03T09:54:34.332Z,29.50
2022-08-03T09:57:24.133Z,29.60
2022-08-03T10:00:16.562Z,29.70
2022-08-03T10:03:06.264Z,29.70
2022-08-03T10:05:59.349Z,29.80
2022-08-03T10:08:47.914Z,29.90
2022-08-03T10:11:40.947Z,29.90
2022-08-03T10:14:31.881Z,30.00
2022-08-03T10:17:21.433Z,30.10
2022-08-03T10:20:12.236Z,30.10
2022-08-03T10:23:01.710Z,30.20
2022-08-03T10:25:54.607Z,30.30
2022-08-03T10:28:50.413Z,30.30
2022-08-03T10:31:55.904Z,30.40
2022-08-03T10:34:48.307Z,30.50
2022-08-03T10:37:43.207Z,30.60
2022-08-03T10:40:49.981Z,30.70
2022-08-03T10:43:55.469Z,30.70
2022-08-03T10:46:45.438Z,30.80
2022-08-03T10:49:35.709Z,30.80
2022-08-03T10:52:32.822Z,30.80
2022-08-03T10:55:56.527Z,30.90
2022-08-03T10:58:53.296Z,31.00
2022-08-03T11:01:59.945Z,31.00
2022-08-03T11:04:48.607Z,31.00
2022-08-03T11:07:37.687Z,31.10
2022-08-03T11:10:34.863Z,31.10
2022-08-03T11:13:25.588Z,31.20
2022-08-03T11:16:23.606Z,31.20
2022-08-03T11:19:14.218Z,31.20
2022-08-03T11:22:02.150Z,31.30
2022-08-03T11:25:04.659Z,31.30
2022-08-03T11:28:30.648Z,31.40
2022-08-03T11:31:50.877Z,31.40
2022-08-03T11:35:10.291Z,31.50
2022-08-03T11:38:15.788Z,31.50
2022-08-03T11:41:03.816Z,31.60
2022-08-03T11:43:53.386Z,31.70
2022-08-03T11:46:41.847Z,31.70
2022-08-03T11:49:29.549Z,31.70
2022-08-03T11:52:27.210Z,31.80
2022-08-03T11:55:20.733Z,31.80
2022-08-03T11:59:00.955Z,31.90
2022-08-03T12:01:23.036Z,31.90
2022-08-03T12:04:11.911Z,32.00
2022-08-03T12:07:01.281Z,32.00
2022-08-03T12:10:08.091Z,32.10
2022-08-03T12:12:57.873Z,32.10
2022-08-03T12:15:52.416Z,32.20
2022-08-03T12:18:43.696Z,32.20
2022-08-03T12:21:32.402Z,32.20
2022-08-03T12:24:20.937Z,32.30
2022-08-03T12:27:08.927Z,32.30
2022-08-03T12:29:59.275Z,32.30
2022-08-03T12:32:47.684Z,32.30
2022-08-03T12:35:37.212Z,32.30
2022-08-03T12:38:25.380Z,32.40
2022-08-03T12:41:19.187Z,32.40
2022-08-03T12:44:09.420Z,32.40
2022-08-03T12:47:00.202Z,32.40
2022-08-03T12:49:48.252Z,32.40
2022-08-03T12:52:45.284Z,32.40
2022-08-03T12:55:57.753Z,32.50
2022-08-03T12:58:43.641Z,32.50
2022-08-03T13:01:54.953Z,32.50
2022-08-03T13:04:43.744Z,32.50
2022-08-03T13:07:45.675Z,32.50
2022-08-03T13:10:35.288Z,32.50
2022-08-03T13:13:41.326Z,32.50
2022-08-03T13:16:29.316Z,32.50
2022-08-03T13:19:17.031Z,32.50
2022-08-03T13:22:13.717Z,32.50
2022-08-03T13:25:03.878Z,32.50
2022-08-03T13:28:05.378Z,32.50
2022-08-03T13:30:54.854Z,32.50
2022-08-03T13:33:43.065Z,32.50
2022-08-03T13:36:42.761Z,32.50
2022-08-03T13:39:57.422Z,32.50
2022-08-03T13:42:48.425Z,32.60
2022-08-03T13:45:36.945Z,32.60
2022-08-03T13:48:37.208Z,32.60
2022-08-03T13:51:26.897Z,32.60
2022-08-03T13:54:15.108Z,32.60
2022-08-03T13:58:03.294Z,32.60
2022-08-03T14:00:27.966Z,32.60
2022-08-03T14:03:17.236Z,32.60
2022-08-03T14:06:05.216Z,32.60
2022-08-03T14:08:53.977Z,32.60
2022-08-03T14:12:04.089Z,32.60
2022-08-03T14:14:56.021Z,32.60
2022-08-03T14:17:50.101Z,32.60
2022-08-03T14:20:47.824Z,32.50
2022-08-03T14:23:41.653Z,32.60
2022-08-03T14:26:30.472Z,32.50
2022-08-03T14:29:18.227Z,32.60
2022-08-03T14:32:12.095Z,32.50
2022-08-03T14:35:02.501Z,32.50
2022-08-03T14:37:51.941Z,32.60
2022-08-03T14:40:39.882Z,32.60
2022-08-03T14:43:33.999Z,32.60
2022-08-03T14:46:22.385Z,32.60
2022-08-03T14:50:36.927Z,32.60
2022-08-03T14:52:19.960Z,32.60
2022-08-03T14:55:08.814Z,32.60
2022-08-03T14:57:56.556Z,32.70
2022-08-03T15:00:44.661Z,32.60
2022-08-03T15:03:32.606Z,32.60
2022-08-03T15:06:20.908Z,32.60
2022-08-03T15:09:21.596Z,32.60
2022-08-03T15:12:11.390Z,32.60
2022-08-03T15:14:59.526Z,32.60
2022-08-03T15:18:00.110Z,32.60
2022-08-03T15:20:50.815Z,32.60
2022-08-03T15:23:39.014Z,32.60
2022-08-03T15:26:35.366Z,32.60
2022-08-03T15:30:07.059Z,32.60
2022-08-03T15:32:35.726Z,32.60
2022-08-03T15:35:23.579Z,32.60
2022-08-03T15:38:11.786Z,32.60
2022-08-03T15:40:59.560Z,32.60
2022-08-03T15:43:48.665Z,32.60
2022-08-03T15:46:36.526Z,32.60
2022-08-03T15:49:24.647Z,32.60
2022-08-03T15:52:12.659Z,32.50
2022-08-03T15:55:00.403Z,32.50
2022-08-03T15:59:09.578Z,32.50
2022-08-03T16:00:58.188Z,32.50
2022-08-03T16:03:46.134Z,32.50
2022-08-03T16:06:35.523Z,32.50
2022-08-03T16:09:42.728Z,32.50
2022-08-03T16:12:31.732Z,32.50
2022-08-03T16:15:19.519Z,32.50
2022-08-03T16:18:08.917Z,32.50
2022-08-03T16:20:56.786Z,32.50
2022-08-03T16:23:47.315Z,32.50
2022-08-03T16:26:35.301Z,32.50
2022-08-03T16:29:23.783Z,32.50
2022-08-03T16:32:11.734Z,32.50
2022-08-03T16:35:02.155Z,32.50
2022-08-03T16:37:54.688Z,32.50
2022-08-03T16:40:45.956Z,32.50
2022-08-03T16:43:34.881Z,32.50
2022-08-03T16:46:23.418Z,32.50
2022-08-03T16:49:11.181Z,32.50
2022-08-03T16:52:00.969Z,32.50
2022-08-03T16:54:50.776Z,32.50
2022-08-03T16:57:59.549Z,32.50
2022-08-03T17:00:48.417Z,32.50
2022-08-03T17:03:42.638Z,32.50
2022-08-03T17:06:49.099Z,32.50
2022-08-03T17:09:39.116Z,32.40
2022-08-03T17:12:34.246Z,32.40
2022-08-03T17:15:38.438Z,32.40
2022-08-03T17:18:36.082Z,32.40
2022-08-03T17:21:29.575Z,32.40
2022-08-03T17:24:26.586Z,32.30
2022-08-03T17:28:48.491Z,32.30
2022-08-03T17:30:49.608Z,32.30
2022-08-03T17:33:39.471Z,32.30
2022-08-03T17:36:47.670Z,32.30
2022-08-03T17:39:57.567Z,32.30
2022-08-03T17:42:50.853Z,32.20
2022-08-03T17:45:52.190Z,32.20
2022-08-03T17:48:42.156Z,32.20
2022-08-03T17:51:33.402Z,32.20
2022-08-03T17:58:02.206Z,32.10
2022-08-03T18:01:59.778Z,32.10
2022-08-03T18:04:29.999Z,32.10
2022-08-03T18:07:21.831Z,32.10
2022-08-03T18:10:15.419Z,32.00
2022-08-03T18:13:10.876Z,32.00
2022-08-03T18:16:02.416Z,32.00
2022-08-03T18:18:54.783Z,32.00
2022-08-03T18:22:03.633Z,32.00
2022-08-03T18:24:53.748Z,31.90
2022-08-03T18:27:45.970Z,31.90
2022-08-03T18:30:54.699Z,31.90
2022-08-03T18:36:54.771Z,31.80
2022-08-03T18:39:49.597Z,31.80
2022-08-03T18:42:40.533Z,31.80
2022-08-03T18:45:55.836Z,31.70
2022-08-03T18:48:55.611Z,31.70
2022-08-03T18:51:56.917Z,31.60
2022-08-03T18:55:03.830Z,31.60
2022-08-03T18:58:15.883Z,31.60
2022-08-03T19:01:57.752Z,31.40
2022-08-03T19:04:33.247Z,30.90
2022-08-03T19:07:28.859Z,30.40
2022-08-03T19:10:27.080Z,30.00
2022-08-03T19:13:35.874Z,29.60
2022-08-03T19:16:34.242Z,29.20
2022-08-03T19:19:24.696Z,28.90
2022-08-03T19:22:15.997Z,28.60
2022-08-03T19:25:06.341Z,28.30
2022-08-03T19:28:03.137Z,28.10
2022-08-03T19:30:55.295Z,27.90
2022-08-03T19:33:55.721Z,27.70
2022-08-03T19:36:50.012Z,27.50
2022-08-03T19:39:38.937Z,27.30
2022-08-03T19:42:32.418Z,27.10
2022-08-03T19:46:06.343Z,27.00
2022-08-03T19:48:54.136Z,26.90
2022-08-03T19:51:58.561Z,26.70
2022-08-03T19:54:54.697Z,26.60
2022-08-03T19:57:49.246Z,26.50
2022-08-03T20:00:40.927Z,26.40
2022-08-03T20:03:43.315Z,26.30
2022-08-03T20:06:33.424Z,26.20
2022-08-03T20:09:24.533Z,26.20
2022-08-03T20:12:19.391Z,26.10
2022-08-03T20:15:22.254Z,26.00
2022-08-03T20:18:19.472Z,26.00
2022-08-03T20:21:19.211Z,25.90
2022-08-03T20:24:23.326Z,25.80
2022-08-03T20:27:16.739Z,25.80
2022-08-03T20:30:07.451Z,25.80
2022-08-03T20:32:55.998Z,25.80
2022-08-03T20:35:45.907Z,25.80
2022-08-03T20:38:43.723Z,25.70
2022-08-03T20:41:36.797Z,25.70
2022-08-03T20:47:35.900Z,25.70
2022-08-03T20:50:23.940Z,25.60
2022-08-03T20:53:12.835Z,25.60
2022-08-03T20:56:02.854Z,25.60
2022-08-03T20:58:53.190Z,25.60
2022-08-03T21:01:40.905Z,25.60
2022-08-03T21:04:32.262Z,25.60
2022-08-03T21:07:22.930Z,25.60
2022-08-03T21:10:15.777Z,25.50
2022-08-03T21:12:55.595Z,32.20
2022-08-03T21:12:58.400Z,31.90
2022-08-03T21:13:13.183Z,25.70
2022-08-03T21:13:18.862Z,25.50
2022-08-03T21:16:14.055Z,25.60
2022-08-03T21:19:05.296Z,25.60
2022-08-03T21:21:55.472Z,25.50
2022-08-03T21:24:45.582Z,25.50
2022-08-03T21:27:34.212Z,25.60
2022-08-03T21:30:23.435Z,25.60
2022-08-03T21:33:12.645Z,25.60
2022-08-03T21:36:02.037Z,25.50
2022-08-03T21:38:55.838Z,25.60
2022-08-03T21:41:44.587Z,25.50
2022-08-03T21:44:32.846Z,25.60
2022-08-03T21:47:23.237Z,25.50
2022-08-03T21:50:14.987Z,25.50
2022-08-03T21:53:02.995Z,25.50
2022-08-03T21:55:59.464Z,25.50
2022-08-03T21:58:52.732Z,25.50
2022-08-03T22:01:45.739Z,25.50
2022-08-03T22:04:53.293Z,25.50
2022-08-03T22:07:46.626Z,25.50
2022-08-03T22:10:35.229Z,25.50
2022-08-03T22:13:43.590Z,25.50
2022-08-03T22:16:32.175Z,25.50
2022-08-03T22:19:20.062Z,25.50
2022-08-03T22:22:14.009Z,25.50
2022-08-03T22:25:11.697Z,25.50
2022-08-03T22:28:02.435Z,25.50
2022-08-03T22:30:50.503Z,25.50
2022-08-03T22:33:39.479Z,25.50
2022-08-03T22:36:28.154Z,25.50
2022-08-03T22:39:25.658Z,25.50
2022-08-03T22:42:16.227Z,25.50
2022-08-03T22:45:07.171Z,25.50
2022-08-03T22:47:57.218Z,25.50
2022-08-03T22:50:46.224Z,25.50
2022-08-03T22:53:34.526Z,25.50
2022-08-03T22:56:22.611Z,25.40
2022-08-03T22:59:40.858Z,25.40
2022-08-03T23:02:21.823Z,25.40
2022-08-03T23:06:01.319Z,25.40
2022-08-03T23:08:26.534Z,25.40
2022-08-03T23:11:15.900Z,25.40
2022-08-03T23:14:08.751Z,25.40
2022-08-03T23:17:00.765Z,25.40
2022-08-03T23:19:48.917Z,25.40
2022-08-03T23:22:42.853Z,25.40
2022-08-03T23:25:31.184Z,25.40
2022-08-03T23:28:19.779Z,25.30
2022-08-03T23:31:09.939Z,25.30
2022-08-03T23:34:19.292Z,25.30
2022-08-03T23:37:07.521Z,25.30
2022-08-03T23:39:56.253Z,25.30
2022-08-03T23:42:47.617Z,25.30
2022-08-03T23:45:37.798Z,25.30
2022-08-03T23:48:26.002Z,25.30
2022-08-03T23:51:27.932Z,25.30
2022-08-03T23:54:34.251Z,25.30
2022-08-03T23:57:32.556Z,25.30
